Time;durP1;ratioP1;P1;durP2;ratioP2;P2;SDS_P1;SDS_P2;PMS_P1;PMS_P2;Temp;Humidity;BMP_temperature;BMP_pressure;BME280_temperature;BME280_humidity;BME280_pressure;Samples;Min_cycle;Max_cycle;Signal;HPM_P1;HPM_P2
2022/03/16 00:00:22;;;;;;;;;;;6.60;87.10;;;;;;5101622;28;19973;-79
2022/03/16 00:02:48;;;;;;;;;;;6.60;87.30;;;;;;5102355;28;20425;-79
2022/03/16 00:05:14;;;;;;;;;;;6.60;87.60;;;;;;5101741;27;20010;-79
2022/03/16 00:07:40;;;;;;;;;;;6.60;87.00;;;;;;5084347;28;19943;-79
2022/03/16 00:10:07;;;;;;;;;;;6.60;87.20;;;;;;5101477;28;20180;-79
2022/03/16 00:12:33;;;;;;;;;;;6.60;87.00;;;;;;5103751;28;19908;-79
2022/03/16 00:15:02;;;;;;;;;;;6.60;86.90;;;;;;5103590;28;20448;-79
2022/03/16 00:17:27;;;;;;;;;;;6.60;87.50;;;;;;5083967;28;20194;-79
2022/03/16 00:19:59;;;;;;;;;;;6.60;88.30;;;;;;5101832;28;19916;-79
2022/03/16 00:22:24;;;;;;;;;;;6.60;88.50;;;;;;5101582;28;20413;-79
2022/03/16 00:24:50;;;;;;;;;;;6.60;88.10;;;;;;5101351;28;19908;-79
2022/03/16 00:27:15;;;;;;;;;;;6.60;88.10;;;;;;5102190;28;19908;-79
2022/03/16 00:29:41;;;;;;;;;;;6.60;88.40;;;;;;5102293;28;20510;-79
2022/03/16 00:32:08;;;;;;;;;;;6.60;88.90;;;;;;5104243;28;20002;-79
2022/03/16 00:34:34;;;;;;;;;;;6.60;88.60;;;;;;5083754;27;19961;-80
2022/03/16 00:36:59;;;;;;;;;;;6.60;88.00;;;;;;5102757;28;19912;-79
2022/03/16 00:39:25;;;;;;;;;;;6.60;88.10;;;;;;5085483;28;19912;-79
2022/03/16 00:41:50;;;;;;;;;;;6.60;87.60;;;;;;5101749;28;19918;-79
2022/03/16 00:44:18;;;;;;;;;;;6.50;88.00;;;;;;5103868;28;19908;-79
2022/03/16 00:46:43;;;;;;;;;;;6.60;88.40;;;;;;5105209;28;19920;-80
2022/03/16 00:49:09;;;;;;;;;;;6.50;88.30;;;;;;5104948;28;19912;-80
2022/03/16 00:51:36;;;;;;;;;;;6.50;88.40;;;;;;5104761;28;19915;-79
2022/03/16 00:54:01;;;;;;;;;;;6.40;88.40;;;;;;5105009;28;20392;-79
2022/03/16 00:56:27;;;;;;;;;;;6.50;88.90;;;;;;5088770;28;19943;-79
2022/03/16 00:58:52;;;;;;;;;;;6.50;89.10;;;;;;5088383;28;19915;-80
2022/03/16 01:01:18;;;;;;;;;;;6.40;88.90;;;;;;5112824;28;20024;-80
2022/03/16 01:03:44;;;;;;;;;;;6.40;89.20;;;;;;5089044;28;19942;-79
2022/03/16 01:06:27;;;;;;;;;;;6.40;89.40;;;;;;5107170;28;19912;-79
2022/03/16 01:08:53;;;;;;;;;;;6.30;89.20;;;;;;5107297;28;20132;-79
2022/03/16 01:11:20;;;;;;;;;;;6.40;89.50;;;;;;5104300;28;19911;-79
2022/03/16 01:13:46;;;;;;;;;;;6.30;89.60;;;;;;5105298;28;20017;-79
2022/03/16 01:16:12;;;;;;;;;;;6.30;89.60;;;;;;5088973;28;19908;-80
2022/03/16 01:18:39;;;;;;;;;;;8.30;90.40;;;;;;5091984;28;19908;-79
2022/03/16 01:21:05;;;;;;;;;;;6.30;90.00;;;;;;5112955;28;20044;-79
2022/03/16 01:23:31;;;;;;;;;;;6.30;90.10;;;;;;5113420;28;19915;-80
2022/03/16 01:25:57;;;;;;;;;;;6.30;90.00;;;;;;5095198;28;20052;-79
2022/03/16 01:28:22;;;;;;;;;;;6.30;90.00;;;;;;5112631;28;20406;-79
2022/03/16 01:30:48;;;;;;;;;;;6.20;90.00;;;;;;5110528;28;19955;-80
2022/03/16 01:33:14;;;;;;;;;;;6.30;90.00;;;;;;5111909;28;19914;-79
2022/03/16 01:35:39;;;;;;;;;;;6.30;90.10;;;;;;5106949;27;19918;-80
2022/03/16 01:38:05;;;;;;;;;;;6.30;90.00;;;;;;5082742;28;19912;-79
2022/03/16 01:40:30;;;;;;;;;;;6.20;90.10;;;;;;5100937;28;19920;-79
2022/03/16 01:42:56;;;;;;;;;;;6.20;90.10;;;;;;5082270;28;20307;-80
2022/03/16 01:45:21;;;;;;;;;;;6.20;90.20;;;;;;5082109;28;19912;-80
2022/03/16 01:47:47;;;;;;;;;;;6.20;90.10;;;;;;5100973;28;19927;-79
2022/03/16 01:50:14;;;;;;;;;;;6.10;90.10;;;;;;5100789;28;19940;-79
2022/03/16 01:52:40;;;;;;;;;;;6.20;90.30;;;;;;5100679;28;20246;-79
2022/03/16 01:55:06;;;;;;;;;;;6.20;90.30;;;;;;5100732;28;20181;-79
2022/03/16 01:57:32;;;;;;;;;;;6.20;90.50;;;;;;5085313;28;19999;-79
2022/03/16 01:59:57;;;;;;;;;;;6.10;90.30;;;;;;5086989;28;19926;-79
2022/03/16 02:02:23;;;;;;;;;;;6.10;90.30;;;;;;5084935;28;19908;-80
2022/03/16 02:04:49;;;;;;;;;;;6.20;90.20;;;;;;5104320;27;20245;-79
2022/03/16 02:07:15;;;;;;;;;;;6.10;90.10;;;;;;5103361;28;19912;-79
2022/03/16 02:09:41;;;;;;;;;;;6.10;90.30;;;;;;5103406;28;20010;-80
2022/03/16 02:12:10;;;;;;;;;;;6.10;90.20;;;;;;5086056;28;20440;-79
2022/03/16 02:14:36;;;;;;;;;;;6.10;90.20;;;;;;5104594;28;20146;-79
2022/03/16 02:17:01;;;;;;;;;;;6.20;90.30;;;;;;5104098;28;19908;-79
2022/03/16 02:19:28;;;;;;;;;;;6.10;90.20;;;;;;5109080;28;19957;-79
2022/03/16 02:21:59;;;;;;;;;;;6.10;90.20;;;;;;5105764;28;19912;-79
2022/03/16 02:24:26;;;;;;;;;;;6.10;90.10;;;;;;5105086;28;19915;-79
2022/03/16 02:26:52;;;;;;;;;;;6.10;90.10;;;;;;5105512;28;20083;-79
2022/03/16 02:29:18;;;;;;;;;;;6.10;90.20;;;;;;5103966;28;20406;-79
2022/03/16 02:31:44;;;;;;;;;;;6.10;90.50;;;;;;5102972;28;19916;-79
2022/03/16 02:34:09;;;;;;;;;;;6.00;90.40;;;;;;5102383;28;20515;-79
2022/03/16 02:36:37;;;;;;;;;;;6.00;90.40;;;;;;5104801;28;19908;-79
2022/03/16 02:39:03;;;;;;;;;;;6.00;90.30;;;;;;5105959;28;19916;-79
2022/03/16 02:41:28;;;;;;;;;;;6.00;90.30;;;;;;5107872;28;19988;-80
2022/03/16 02:43:54;;;;;;;;;;;6.00;90.70;;;;;;5106857;28;19944;-79
2022/03/16 02:46:19;;;;;;;;;;;6.00;90.60;;;;;;5104580;28;19916;-79
2022/03/16 02:48:45;;;;;;;;;;;6.00;90.60;;;;;;5104190;28;20365;-79
2022/03/16 02:51:12;;;;;;;;;;;6.00;90.80;;;;;;5104640;28;19907;-79
2022/03/16 02:53:37;;;;;;;;;;;6.00;91.00;;;;;;5104524;28;19908;-80
2022/03/16 02:56:03;;;;;;;;;;;6.00;90.90;;;;;;5104833;28;19917;-80
2022/03/16 02:58:28;;;;;;;;;;;5.90;90.90;;;;;;5085799;28;19912;-79
2022/03/16 03:00:54;;;;;;;;;;;5.90;91.00;;;;;;5104202;28;20421;-79
2022/03/16 03:03:20;;;;;;;;;;;4.30;90.80;;;;;;5104857;28;19972;-79
2022/03/16 03:05:45;;;;;;;;;;;5.90;91.30;;;;;;5105094;28;20294;-79
2022/03/16 03:08:11;;;;;;;;;;;5.80;91.50;;;;;;5109727;28;19915;-80
2022/03/16 03:10:36;;;;;;;;;;;5.80;91.50;;;;;;5106427;28;20443;-79
2022/03/16 03:13:02;;;;;;;;;;;5.80;91.30;;;;;;5102138;28;19919;-80
2022/03/16 03:15:28;;;;;;;;;;;5.80;91.30;;;;;;5102151;28;20274;-79
2022/03/16 03:17:53;;;;;;;;;;;5.80;91.40;;;;;;5101750;28;21169;-80
2022/03/16 03:20:19;;;;;;;;;;;5.70;91.30;;;;;;5101473;28;20532;-79
2022/03/16 03:22:45;;;;;;;;;;;5.70;91.40;;;;;;5101700;28;19908;-79
2022/03/16 03:25:13;;;;;;;;;;;5.70;91.50;;;;;;5101305;28;19908;-79
2022/03/16 03:27:39;;;;;;;;;;;5.70;91.50;;;;;;5101192;28;19912;-79
2022/03/16 03:30:05;;;;;;;;;;;5.70;91.60;;;;;;5100923;28;19960;-79
2022/03/16 03:32:30;;;;;;;;;;;5.70;91.60;;;;;;5100995;28;19908;-79
2022/03/16 03:34:56;;;;;;;;;;;5.60;91.70;;;;;;5082156;28;19908;-79
2022/03/16 03:37:22;;;;;;;;;;;5.60;91.60;;;;;;5101521;28;20484;-79
2022/03/16 03:39:48;;;;;;;;;;;5.60;91.70;;;;;;5101029;28;19912;-79
2022/03/16 03:42:14;;;;;;;;;;;5.60;91.80;;;;;;5100848;28;19912;-79
2022/03/16 03:44:39;;;;;;;;;;;5.60;91.70;;;;;;5100626;28;19911;-79
2022/03/16 03:47:05;;;;;;;;;;;5.60;91.60;;;;;;5101252;28;20188;-79
2022/03/16 03:49:32;;;;;;;;;;;5.60;91.40;;;;;;5101273;28;20119;-79
2022/03/16 03:51:58;;;;;;;;;;;5.60;91.40;;;;;;5101167;28;20195;-79
2022/03/16 03:54:23;;;;;;;;;;;5.70;91.60;;;;;;5101402;28;19908;-79
2022/03/16 03:56:49;;;;;;;;;;;5.70;91.50;;;;;;5101625;28;19912;-79
2022/03/16 03:59:17;;;;;;;;;;;5.60;91.60;;;;;;5100837;28;20128;-79
2022/03/16 04:01:43;;;;;;;;;;;5.60;91.70;;;;;;5100829;28;19915;-79
2022/03/16 04:04:08;;;;;;;;;;;5.60;91.70;;;;;;5100710;28;19908;-79
2022/03/16 04:06:34;;;;;;;;;;;5.60;91.70;;;;;;5100458;28;20414;-79
2022/03/16 04:08:59;;;;;;;;;;;5.50;91.70;;;;;;5100496;28;20329;-79
2022/03/16 04:11:25;;;;;;;;;;;5.60;91.90;;;;;;5100829;28;20002;-80
2022/03/16 04:13:50;;;;;;;;;;;5.50;91.80;;;;;;5100542;28;19915;-79
2022/03/16 04:16:16;;;;;;;;;;;5.60;92.20;;;;;;5082169;28;19908;-79
2022/03/16 04:18:41;;;;;;;;;;;5.50;91.90;;;;;;5099844;28;20370;-79
2022/03/16 04:21:07;;;;;;;;;;;5.50;92.00;;;;;;5080928;28;19916;-79
2022/03/16 04:23:33;;;;;;;;;;;5.50;91.90;;;;;;5100405;28;19908;-79
2022/03/16 04:25:58;;;;;;;;;;;5.50;92.00;;;;;;5102184;28;19926;-79
2022/03/16 04:28:24;;;;;;;;;;;5.50;92.10;;;;;;5101051;28;20175;-79
2022/03/16 04:30:49;;;;;;;;;;;5.50;91.90;;;;;;5101960;28;19912;-79
2022/03/16 04:33:15;;;;;;;;;;;5.40;91.80;;;;;;5103113;28;20200;-80
2022/03/16 04:35:40;;;;;;;;;;;5.40;91.90;;;;;;5102996;28;19951;-79
2022/03/16 04:38:08;;;;;;;;;;;5.40;91.90;;;;;;5103295;28;19912;-79
2022/03/16 04:40:34;;;;;;;;;;;5.40;91.90;;;;;;5085129;28;19995;-79
2022/03/16 04:42:59;;;;;;;;;;;5.40;92.10;;;;;;5102907;28;20006;-79
2022/03/16 04:45:25;;;;;;;;;;;5.40;92.10;;;;;;5102299;28;20010;-79
2022/03/16 04:47:50;;;;;;;;;;;5.40;92.20;;;;;;5101168;28;19977;-79
2022/03/16 04:50:16;;;;;;;;;;;5.30;92.30;;;;;;5102505;28;19908;-79
2022/03/16 04:52:45;;;;;;;;;;;5.30;92.20;;;;;;5101507;28;19912;-79
2022/03/16 04:55:11;;;;;;;;;;;5.30;92.50;;;;;;5101168;28;20286;-79
2022/03/16 04:57:37;;;;;;;;;;;5.30;92.60;;;;;;5101683;28;20411;-79
2022/03/16 05:00:03;;;;;;;;;;;5.30;92.60;;;;;;5100982;28;20012;-79
2022/03/16 05:02:29;;;;;;;;;;;5.20;92.50;;;;;;5101520;28;20425;-80
2022/03/16 05:04:54;;;;;;;;;;;7.00;93.10;;;;;;5101945;28;19918;-79
2022/03/16 05:07:20;;;;;;;;;;;5.10;92.70;;;;;;5103537;28;19915;-79
2022/03/16 05:09:46;;;;;;;;;;;5.10;92.60;;;;;;5102867;28;19961;-79
2022/03/16 05:12:11;;;;;;;;;;;5.10;92.80;;;;;;5084010;28;19987;-79
2022/03/16 05:14:37;;;;;;;;;;;5.10;92.90;;;;;;5104406;28;19914;-79
2022/03/16 05:17:02;;;;;;;;;;;5.10;92.90;;;;;;5108403;28;19908;-79
2022/03/16 05:19:30;;;;;;;;;;;5.10;92.90;;;;;;5101482;28;19912;-79
2022/03/16 05:21:56;;;;;;;;;;;5.10;92.80;;;;;;5099610;28;19915;-79
2022/03/16 05:24:23;;;;;;;;;;;5.10;92.70;;;;;;5080602;28;19908;-79
2022/03/16 05:26:49;;;;;;;;;;;5.10;92.80;;;;;;5098682;28;19990;-79
2022/03/16 05:29:15;;;;;;;;;;;5.20;92.70;;;;;;5098893;28;20253;-79
2022/03/16 05:31:40;;;;;;;;;;;5.10;92.70;;;;;;5080829;28;19908;-79
2022/03/16 05:34:06;;;;;;;;;;;5.20;92.60;;;;;;5103173;28;20161;-79
2022/03/16 05:36:31;;;;;;;;;;;5.20;92.60;;;;;;5102981;28;19912;-80
2022/03/16 05:39:00;;;;;;;;;;;5.20;92.40;;;;;;5102781;28;19958;-79
2022/03/16 05:41:25;;;;;;;;;;;5.30;92.60;;;;;;5084621;28;19916;-79
2022/03/16 05:43:51;;;;;;;;;;;5.30;92.40;;;;;;5102918;28;19988;-79
2022/03/16 05:46:16;;;;;;;;;;;5.30;92.40;;;;;;5103871;28;19908;-79
2022/03/16 05:48:42;;;;;;;;;;;5.40;92.50;;;;;;5104844;28;19943;-79
2022/03/16 05:51:08;;;;;;;;;;;5.40;92.10;;;;;;5104545;28;19914;-80
2022/03/16 05:53:34;;;;;;;;;;;5.50;91.80;;;;;;5104129;28;19911;-80
2022/03/16 05:55:59;;;;;;;;;;;5.50;91.90;;;;;;5104540;28;19911;-79
2022/03/16 05:58:25;;;;;;;;;;;5.50;91.90;;;;;;5091415;28;20132;-79
2022/03/16 06:00:51;;;;;;;;;;;5.60;91.90;;;;;;5108137;28;20023;-79
2022/03/16 06:03:16;;;;;;;;;;;5.60;91.90;;;;;;5105006;28;19958;-79
2022/03/16 06:05:42;;;;;;;;;;;5.60;92.00;;;;;;5103129;28;19911;-79
2022/03/16 06:08:07;;;;;;;;;;;5.70;91.60;;;;;;5104156;28;19938;-79
2022/03/16 06:10:33;;;;;;;;;;;5.80;91.60;;;;;;5085634;28;20362;-79
2022/03/16 06:13:03;;;;;;;;;;;5.80;91.40;;;;;;5104221;28;20030;-79
2022/03/16 06:15:30;;;;;;;;;;;5.90;91.30;;;;;;5104854;28;20096;-79
2022/03/16 06:17:56;;;;;;;;;;;5.90;91.00;;;;;;5105018;28;19908;-79
2022/03/16 06:20:22;;;;;;;;;;;6.00;90.90;;;;;;5104501;28;20105;-79
2022/03/16 06:22:48;;;;;;;;;;;6.00;90.80;;;;;;5104797;28;19915;-79
2022/03/16 06:25:14;;;;;;;;;;;6.10;90.70;;;;;;5104118;28;20259;-79
2022/03/16 06:27:40;;;;;;;;;;;6.20;90.70;;;;;;5087263;28;19994;-80
2022/03/16 06:30:06;;;;;;;;;;;4.90;89.60;;;;;;5107540;28;20196;-80
2022/03/16 06:32:31;;;;;;;;;;;6.30;90.20;;;;;;5107018;28;19907;-80
2022/03/16 06:34:57;;;;;;;;;;;6.30;90.30;;;;;;5084235;28;20139;-79
2022/03/16 06:37:23;;;;;;;;;;;6.40;90.20;;;;;;5103869;28;19955;-80
2022/03/16 06:39:48;;;;;;;;;;;4.70;89.20;;;;;;5104872;28;20546;-79
2022/03/16 06:42:14;;;;;;;;;;;6.50;89.20;;;;;;5104515;28;20204;-79
2022/03/16 06:44:39;;;;;;;;;;;6.60;88.90;;;;;;5085539;28;19955;-79
2022/03/16 06:47:05;;;;;;;;;;;6.70;88.50;;;;;;5103990;28;20150;-79
2022/03/16 06:49:30;;;;;;;;;;;6.90;88.00;;;;;;5105105;28;20129;-80
2022/03/16 06:51:56;;;;;;;;;;;7.00;87.20;;;;;;5105060;28;20366;-79
2022/03/16 06:54:22;;;;;;;;;;;7.20;86.20;;;;;;5085099;28;19961;-79
2022/03/16 06:56:47;;;;;;;;;;;7.20;86.00;;;;;;5105330;28;20104;-79
2022/03/16 06:59:13;;;;;;;;;;;7.30;86.00;;;;;;5105423;28;20570;-79
2022/03/16 07:01:39;;;;;;;;;;;7.50;85.10;;;;;;5103810;28;19922;-79
2022/03/16 07:04:05;;;;;;;;;;;7.70;83.80;;;;;;5105735;28;19912;-79
2022/03/16 07:06:31;;;;;;;;;;;7.80;83.40;;;;;;5106473;28;19953;-79
2022/03/16 07:08:56;;;;;;;;;;;7.50;81.70;;;;;;5107288;28;19916;-79
2022/03/16 07:11:22;;;;;;;;;;;8.20;82.10;;;;;;5087528;28;20398;-80
2022/03/16 07:14:30;;;;;;;;;;;8.40;82.00;;;;;;5087181;28;20286;-79
2022/03/16 07:16:33;;;;;;;;;;;8.50;79.60;;;;;;5106098;28;19908;-79
2022/03/16 07:18:59;;;;;;;;;;;8.60;79.30;;;;;;5104034;28;20591;-79
2022/03/16 07:21:25;;;;;;;;;;;8.80;78.20;;;;;;5106298;28;19912;-80
2022/03/16 07:23:50;;;;;;;;;;;8.90;77.80;;;;;;5116807;28;20121;-79
2022/03/16 07:26:16;;;;;;;;;;;9.00;76.20;;;;;;5107628;28;19908;-80
2022/03/16 07:28:41;;;;;;;;;;;9.20;74.90;;;;;;5085390;28;19981;-80
2022/03/16 07:31:10;;;;;;;;;;;9.40;74.40;;;;;;5102608;28;20330;-79
2022/03/16 07:33:35;;;;;;;;;;;9.60;73.80;;;;;;5102061;28;20115;-80
2022/03/16 07:36:01;;;;;;;;;;;9.70;74.00;;;;;;5102635;28;20366;-79
2022/03/16 07:38:27;;;;;;;;;;;9.80;72.20;;;;;;5103593;28;19984;-80
2022/03/16 07:40:52;;;;;;;;;;;9.90;70.80;;;;;;5103455;28;19961;-79
2022/03/16 07:43:18;;;;;;;;;;;10.00;67.90;;;;;;5103277;28;19961;-79
2022/03/16 07:45:44;;;;;;;;;;;10.10;67.90;;;;;;5084253;28;19950;-79
2022/03/16 07:48:09;;;;;;;;;;;10.20;65.70;;;;;;5101497;28;20127;-79
2022/03/16 07:50:36;;;;;;;;;;;10.40;65.40;;;;;;5102407;28;19919;-79
2022/03/16 07:53:02;;;;;;;;;;;10.50;64.80;;;;;;5102317;28;19911;-80
2022/03/16 07:55:27;;;;;;;;;;;10.60;63.40;;;;;;5099764;28;19908;-79
2022/03/16 07:57:54;;;;;;;;;;;10.80;61.20;;;;;;5081187;28;19968;-79
2022/03/16 08:00:20;;;;;;;;;;;11.00;59.70;;;;;;5100460;28;19920;-80
2022/03/16 08:02:46;;;;;;;;;;;9.60;53.90;;;;;;5100184;28;20109;-79
2022/03/16 08:05:12;;;;;;;;;;;11.30;54.70;;;;;;5080914;28;19912;-80
2022/03/16 08:07:37;;;;;;;;;;;11.50;53.90;;;;;;5099639;28;19976;-80
2022/03/16 08:10:03;;;;;;;;;;;11.70;52.60;;;;;;5099517;28;19916;-79
2022/03/16 08:12:30;;;;;;;;;;;11.90;48.70;;;;;;5099646;28;20297;-79
2022/03/16 08:14:55;;;;;;;;;;;12.10;47.60;;;;;;5099775;28;19907;-80
2022/03/16 08:17:21;;;;;;;;;;;12.20;47.80;;;;;;5099110;28;20116;-79
2022/03/16 08:19:46;;;;;;;;;;;12.20;47.00;;;;;;5098766;28;20381;-80
2022/03/16 08:22:12;;;;;;;;;;;12.30;46.40;;;;;;5099067;28;20449;-80
2022/03/16 08:24:37;;;;;;;;;;;12.50;46.60;;;;;;5098592;28;20410;-79
2022/03/16 08:27:03;;;;;;;;;;;12.50;46.40;;;;;;5098730;28;19908;-79
2022/03/16 08:29:29;;;;;;;;;;;12.60;45.90;;;;;;5098577;28;19970;-80
2022/03/16 08:31:54;;;;;;;;;;;12.80;46.00;;;;;;5097961;28;20353;-79
2022/03/16 08:34:20;;;;;;;;;;;12.90;46.00;;;;;;5079486;28;19907;-79
2022/03/16 08:36:46;;;;;;;;;;;13.20;45.60;;;;;;5097649;28;20162;-80
2022/03/16 08:39:11;;;;;;;;;;;13.40;45.70;;;;;;5097957;28;19912;-80
2022/03/16 08:41:37;;;;;;;;;;;13.40;46.30;;;;;;5097876;28;20527;-80
2022/03/16 08:44:03;;;;;;;;;;;13.70;46.20;;;;;;5080658;28;19915;-79
2022/03/16 08:46:29;;;;;;;;;;;13.50;46.00;;;;;;5099792;28;19920;-79
2022/03/16 08:48:54;;;;;;;;;;;13.50;46.10;;;;;;5099756;28;20231;-80
2022/03/16 08:51:20;;;;;;;;;;;13.50;46.70;;;;;;5098884;28;19908;-79
2022/03/16 08:53:46;;;;;;;;;;;13.60;46.50;;;;;;5098739;28;20549;-79
2022/03/16 08:56:12;;;;;;;;;;;13.70;45.90;;;;;;5100271;28;19919;-79
2022/03/16 08:58:37;;;;;;;;;;;13.50;46.20;;;;;;5100557;28;19957;-79
2022/03/16 09:01:04;;;;;;;;;;;13.50;46.30;;;;;;5099962;28;19915;-79
2022/03/16 09:03:29;;;;;;;;;;;13.50;46.40;;;;;;5100195;28;19912;-79
2022/03/16 09:05:55;;;;;;;;;;;13.50;46.30;;;;;;5098731;28;19972;-80
2022/03/16 09:08:21;;;;;;;;;;;13.60;46.70;;;;;;5097896;28;19920;-79
2022/03/16 09:10:47;;;;;;;;;;;13.70;46.70;;;;;;5080139;28;19915;-79
2022/03/16 09:13:15;;;;;;;;;;;13.80;46.80;;;;;;5098771;28;20440;-80
2022/03/16 09:15:41;;;;;;;;;;;13.80;46.80;;;;;;5101463;28;20409;-79
2022/03/16 09:18:09;;;;;;;;;;;13.70;46.80;;;;;;5100965;28;19908;-79
2022/03/16 09:20:34;;;;;;;;;;;13.70;47.00;;;;;;5100042;28;19924;-79
2022/03/16 09:23:01;;;;;;;;;;;13.80;46.70;;;;;;5100353;28;19908;-80
2022/03/16 09:25:27;;;;;;;;;;;14.10;46.70;;;;;;5099753;28;19912;-79
2022/03/16 09:27:52;;;;;;;;;;;14.00;46.40;;;;;;5099071;28;19908;-79
2022/03/16 09:30:19;;;;;;;;;;;14.20;47.30;;;;;;5099995;28;19915;-80
2022/03/16 09:32:45;;;;;;;;;;;14.10;46.50;;;;;;5103080;28;20180;-80
2022/03/16 09:35:10;;;;;;;;;;;14.20;46.40;;;;;;5100416;28;19911;-79
2022/03/16 09:37:36;;;;;;;;;;;13.90;46.30;;;;;;5079804;28;20311;-80
2022/03/16 09:40:02;;;;;;;;;;;14.40;46.00;;;;;;5097977;28;19966;-80
2022/03/16 09:42:29;;;;;;;;;;;14.40;46.30;;;;;;5080102;28;20290;-80
2022/03/16 09:44:59;;;;;;;;;;;14.40;46.00;;;;;;5098539;28;19915;-82
2022/03/16 09:47:25;;;;;;;;;;;14.40;46.60;;;;;;5097749;28;19920;-80
2022/03/16 09:49:52;;;;;;;;;;;14.60;45.90;;;;;;5098152;28;19933;-80
2022/03/16 09:52:17;;;;;;;;;;;14.70;45.60;;;;;;5097434;28;20417;-80
2022/03/16 09:54:43;;;;;;;;;;;14.60;45.60;;;;;;5097892;28;19908;-79
2022/03/16 09:57:08;;;;;;;;;;;14.50;45.90;;;;;;5097769;28;19916;-79
2022/03/16 09:59:36;;;;;;;;;;;14.50;46.10;;;;;;5097846;28;19916;-80
2022/03/16 10:02:10;;;;;;;;;;;14.80;46.30;;;;;;5097709;28;20552;-80
2022/03/16 10:04:36;;;;;;;;;;;14.80;45.60;;;;;;5097393;28;19935;-81
2022/03/16 10:07:03;;;;;;;;;;;14.90;45.20;;;;;;5097717;28;20349;-81
2022/03/16 10:15:00;;;;;;;;;;;15.00;45.40;;;;;;5106611;28;19918;-79
2022/03/16 10:17:44;;;;;;;;;;;15.00;45.50;;;;;;5098994;28;20374;-80
2022/03/16 10:20:21;;;;;;;;;;;14.90;45.20;;;;;;5113608;28;19927;-79
2022/03/16 10:23:07;;;;;;;;;;;15.10;45.60;;;;;;5102079;28;19908;-80
2022/03/16 10:25:33;;;;;;;;;;;15.10;45.00;;;;;;5082634;28;19908;-80
2022/03/16 10:28:11;;;;;;;;;;;15.10;45.70;;;;;;5100936;28;19914;-81
2022/03/16 10:30:58;;;;;;;;;;;15.10;44.90;;;;;;5101040;28;20248;-80
2022/03/16 10:33:34;;;;;;;;;;;15.20;45.50;;;;;;5100731;28;19916;-79
2022/03/16 10:36:13;;;;;;;;;;;15.10;46.00;;;;;;5100807;28;19920;-80
2022/03/16 10:38:41;;;;;;;;;;;15.10;46.00;;;;;;5081903;28;19915;-81
2022/03/16 10:47:12;;;;;;;;;;;15.30;45.50;;;;;;4997265;28;20700;-79
2022/03/16 10:49:38;;;;;;;;;;;15.50;45.30;;;;;;4997591;28;20012;-80
2022/03/16 10:52:14;;;;;;;;;;;15.60;45.20;;;;;;4980924;28;20006;-80
2022/03/16 10:54:40;;;;;;;;;;;15.40;44.90;;;;;;4997780;28;20443;-81
2022/03/16 10:57:10;;;;;;;;;;;15.30;44.70;;;;;;4981965;28;19909;-80
2022/03/16 10:59:36;;;;;;;;;;;15.20;45.50;;;;;;4998380;28;20477;-80
2022/03/16 11:02:02;;;;;;;;;;;15.20;45.70;;;;;;4997347;28;19917;-80
2022/03/16 11:04:34;;;;;;;;;;;15.20;45.80;;;;;;4997019;28;19913;-80
2022/03/16 11:07:01;;;;;;;;;;;15.30;45.70;;;;;;4997374;28;19921;-80
2022/03/16 11:09:27;;;;;;;;;;;15.30;45.90;;;;;;4997685;28;20518;-80
2022/03/16 11:14:38;;;;;;;;;;;15.30;45.90;;;;;;4997733;28;20472;-78
2022/03/16 11:17:04;;;;;;;;;;;15.10;46.20;;;;;;5000863;28;19933;-79
2022/03/16 11:19:30;;;;;;;;;;;13.60;46.10;;;;;;5099986;28;19993;-78
2022/03/16 11:22:05;;;;;;;;;;;14.80;47.20;;;;;;5100548;28;19907;-80
2022/03/16 11:24:34;;;;;;;;;;;15.00;47.10;;;;;;5101130;28;19912;-78
2022/03/16 11:27:03;;;;;;;;;;;15.30;47.00;;;;;;5099492;28;20392;-78
2022/03/16 11:29:38;;;;;;;;;;;15.60;45.60;;;;;;5080785;28;20275;-79
2022/03/16 11:32:09;;;;;;;;;;;15.80;45.20;;;;;;5100030;28;20232;-78
2022/03/16 11:34:36;;;;;;;;;;;16.10;44.80;;;;;;5099225;28;20438;-78
2022/03/16 11:37:08;;;;;;;;;;;16.10;44.60;;;;;;5099625;28;19916;-78
2022/03/16 11:39:42;;;;;;;;;;;16.20;44.70;;;;;;5099606;28;20438;-78
2022/03/16 11:42:09;;;;;;;;;;;16.40;44.80;;;;;;5100699;28;19911;-80
2022/03/16 11:44:34;;;;;;;;;;;16.60;44.00;;;;;;5102298;28;19908;-78
2022/03/16 11:47:09;;;;;;;;;;;16.50;43.90;;;;;;5101164;28;20313;-78
2022/03/16 11:49:35;;;;;;;;;;;16.50;44.10;;;;;;5102782;28;19908;-78
2022/03/16 11:52:01;;;;;;;;;;;16.50;44.10;;;;;;5101585;28;19934;-77
2022/03/16 11:54:42;;;;;;;;;;;16.70;43.70;;;;;;5101432;28;19914;-79
2022/03/16 11:57:10;;;;;;;;;;;16.70;43.30;;;;;;5100837;28;20097;-78
2022/03/16 11:59:44;;;;;;;;;;;16.90;43.30;;;;;;5099843;28;19916;-78
2022/03/16 12:02:20;;;;;;;;;;;17.20;42.90;;;;;;5081154;28;20184;-78
2022/03/16 12:04:47;;;;;;;;;;;17.30;42.60;;;;;;5099080;28;19935;-78
2022/03/16 12:07:13;;;;;;;;;;;17.40;42.70;;;;;;5080221;28;20406;-80
2022/03/16 12:09:40;;;;;;;;;;;17.60;42.40;;;;;;5098677;28;19908;-78
2022/03/16 12:15:11;;;;;;;;;;;17.40;42.20;;;;;;5098889;28;19935;-81
2022/03/16 12:17:43;;;;;;;;;;;17.00;43.30;;;;;;5098736;28;20011;-78
2022/03/16 12:20:10;;;;;;;;;;;16.70;43.70;;;;;;5098450;28;20123;-78
2022/03/16 12:22:39;;;;;;;;;;;16.90;43.60;;;;;;5099087;28;19938;-79
2022/03/16 12:25:29;;;;;;;;;;;16.70;44.10;;;;;;5098570;28;20386;-78
2022/03/16 12:31:03;;;;;;;;;;;16.90;44.70;;;;;;5098964;28;20601;-78
2022/03/16 12:33:31;;;;;;;;;;;17.30;43.70;;;;;;4978748;28;20125;-78
2022/03/16 12:36:38;;;;;;;;;;;17.50;43.20;;;;;;4995327;28;20212;-79
2022/03/16 12:39:07;;;;;;;;;;;17.70;42.60;;;;;;4995283;28;20012;-79
2022/03/16 12:44:18;;;;;;;;;;;17.70;43.10;;;;;;4995433;28;20493;-79
2022/03/16 12:46:44;;;;;;;;;;;17.40;43.00;;;;;;4995131;28;19922;-79
2022/03/16 12:49:13;;;;;;;;;;;17.40;43.10;;;;;;4995107;28;19921;-79
2022/03/16 12:51:39;;;;;;;;;;;17.20;43.70;;;;;;4978673;28;20081;-79
2022/03/16 12:54:08;;;;;;;;;;;17.00;43.90;;;;;;4995439;28;20297;-78
2022/03/16 12:56:40;;;;;;;;;;;17.00;44.10;;;;;;4995336;28;19910;-79
2022/03/16 12:59:06;;;;;;;;;;;17.00;44.20;;;;;;4995198;28;19921;-79
2022/03/16 13:01:31;;;;;;;;;;;16.70;44.80;;;;;;4995252;28;19991;-79
2022/03/16 13:04:00;;;;;;;;;;;16.50;45.10;;;;;;4995118;28;19910;-78
2022/03/16 13:06:25;;;;;;;;;;;16.30;45.40;;;;;;4994534;28;20451;-78
2022/03/16 13:08:52;;;;;;;;;;;16.10;46.20;;;;;;4994577;28;19918;-78
2022/03/16 13:11:22;;;;;;;;;;;16.20;46.60;;;;;;5077916;28;20069;-79
2022/03/16 13:13:58;;;;;;;;;;;15.90;47.10;;;;;;5097674;28;20002;-78
2022/03/16 13:16:39;;;;;;;;;;;15.80;47.40;;;;;;5096878;28;19915;-78
2022/03/16 13:19:24;;;;;;;;;;;15.90;47.50;;;;;;5097655;28;19908;-79
2022/03/16 13:22:02;;;;;;;;;;;15.80;47.50;;;;;;5097744;28;20156;-78
2022/03/16 13:24:51;;;;;;;;;;;15.60;48.00;;;;;;5079198;28;20151;-78
2022/03/16 13:27:18;;;;;;;;;;;15.40;49.00;;;;;;4994119;28;19916;-78
2022/03/16 13:29:50;;;;;;;;;;;15.30;49.00;;;;;;4994309;28;19987;-79
2022/03/16 13:32:25;;;;;;;;;;;15.20;49.30;;;;;;4994446;28;20181;-78
2022/03/16 13:34:51;;;;;;;;;;;15.20;49.60;;;;;;4993903;28;19952;-78
2022/03/16 13:37:20;;;;;;;;;;;15.10;50.00;;;;;;4994438;28;20380;-79
2022/03/16 13:40:00;;;;;;;;;;;15.10;50.40;;;;;;4994286;28;19913;-79
2022/03/16 13:42:27;;;;;;;;;;;15.10;50.70;;;;;;4977355;28;19913;-78
2022/03/16 13:44:53;;;;;;;;;;;15.00;50.80;;;;;;4994757;28;20182;-78
2022/03/16 13:47:20;;;;;;;;;;;14.90;51.20;;;;;;4995675;28;20253;-79
2022/03/16 13:49:47;;;;;;;;;;;14.40;50.90;;;;;;4994751;28;20202;-78
2022/03/16 13:52:14;;;;;;;;;;;11.20;49.60;;;;;;4994323;28;19909;-78
2022/03/16 13:54:43;;;;;;;;;;;14.90;51.60;;;;;;4997525;28;21421;-79
2022/03/16 13:57:10;;;;;;;;;;;15.00;51.50;;;;;;4998147;28;20296;-78
2022/03/16 13:59:36;;;;;;;;;;;14.90;51.70;;;;;;4998145;28;20104;-79
2022/03/16 14:02:08;;;;;;;;;;;15.10;51.70;;;;;;5000000;28;20237;-78
2022/03/16 14:04:36;;;;;;;;;;;15.10;51.70;;;;;;5067878;28;19918;-78
2022/03/16 14:07:15;;;;;;;;;;;15.00;52.50;;;;;;5107885;28;19919;-79
2022/03/16 14:09:42;;;;;;;;;;;15.00;52.50;;;;;;5101405;28;19912;-79
2022/03/16 14:12:10;;;;;;;;;;;14.90;52.50;;;;;;5082936;28;20200;-79
2022/03/16 14:14:36;;;;;;;;;;;14.80;52.90;;;;;;5082215;28;20041;-78
2022/03/16 14:17:02;;;;;;;;;;;14.70;52.90;;;;;;5101344;28;20204;-78
2022/03/16 14:19:28;;;;;;;;;;;14.60;53.40;;;;;;5101199;28;19912;-78
2022/03/16 14:21:54;;;;;;;;;;;14.60;53.80;;;;;;5082687;28;19911;-80
2022/03/16 14:24:20;;;;;;;;;;;14.60;54.60;;;;;;5101281;28;20143;-79
2022/03/16 14:26:46;;;;;;;;;;;14.50;54.70;;;;;;5101024;28;19907;-80
2022/03/16 14:29:11;;;;;;;;;;;14.50;54.70;;;;;;5100967;28;19961;-79
2022/03/16 14:31:37;;;;;;;;;;;14.50;55.20;;;;;;5100754;28;19918;-79
2022/03/16 14:34:05;;;;;;;;;;;14.50;55.60;;;;;;5100560;28;19911;-80
2022/03/16 14:36:32;;;;;;;;;;;14.50;55.70;;;;;;5100351;28;19964;-80
2022/03/16 14:38:58;;;;;;;;;;;14.40;55.80;;;;;;5100604;28;20093;-80
2022/03/16 14:41:24;;;;;;;;;;;14.40;55.80;;;;;;5082291;28;19942;-79
2022/03/16 14:43:50;;;;;;;;;;;14.40;56.20;;;;;;5082463;28;19998;-79
2022/03/16 14:46:15;;;;;;;;;;;14.30;56.40;;;;;;5100450;28;20026;-80